createdAt,value
2023-01-12T00:00:31.250Z,4.80
2023-01-12T00:05:37.401Z,6.07
2023-01-12T00:10:43.651Z,5.74
2023-01-12T00:15:49.763Z,4.61
2023-01-12T00:20:55.944Z,4.17
2023-01-12T00:26:02.144Z,3.95
2023-01-12T00:31:08.436Z,5.29
2023-01-12T00:36:14.497Z,5.22
2023-01-12T00:41:20.727Z,7.09
2023-01-12T00:46:26.858Z,5.56
2023-01-12T00:51:33.175Z,5.30
2023-01-12T00:56:39.661Z,5.00
2023-01-12T01:01:46.014Z,7.71
2023-01-12T01:06:51.994Z,5.43
2023-01-12T01:11:58.293Z,4.20
2023-01-12T01:17:04.440Z,5.59
2023-01-12T01:22:10.667Z,4.17
2023-01-12T01:27:16.825Z,5.64
2023-01-12T01:32:23.010Z,6.44
2023-01-12T01:37:29.186Z,5.32
2023-01-12T01:42:35.428Z,5.34
2023-01-12T01:47:41.511Z,4.78
2023-01-12T01:52:48.033Z,5.53
2023-01-12T01:57:54.231Z,5.76
2023-01-12T02:03:00.586Z,3.58
2023-01-12T02:08:06.659Z,4.48
2023-01-12T02:13:12.964Z,7.05
2023-01-12T02:18:19.039Z,3.79
2023-01-12T02:23:25.243Z,6.64
2023-01-12T02:28:31.321Z,5.87
2023-01-12T02:33:37.560Z,6.43
2023-01-12T02:38:43.659Z,5.68
2023-01-12T02:43:49.936Z,4.32
2023-01-12T02:48:56.445Z,5.39
2023-01-12T02:54:02.645Z,6.51
2023-01-12T02:59:08.761Z,6.66
2023-01-12T03:04:14.925Z,7.04
2023-01-12T03:09:21.063Z,6.51
2023-01-12T03:14:27.327Z,6.77
2023-01-12T03:19:33.527Z,5.67
2023-01-12T03:24:39.720Z,5.30
2023-01-12T03:29:45.793Z,6.30
2023-01-12T03:34:52.080Z,5.55
2023-01-12T03:39:58.162Z,5.00
2023-01-12T03:45:04.693Z,5.37
2023-01-12T03:50:10.782Z,6.04
2023-01-12T03:55:17.035Z,5.11
2023-01-12T04:00:23.183Z,5.60
2023-01-12T04:05:29.611Z,4.96
2023-01-12T04:10:36.064Z,5.50
2023-01-12T04:15:42.320Z,5.85
2023-01-12T04:20:48.442Z,5.61
2023-01-12T04:25:54.884Z,7.37
2023-01-12T04:31:00.967Z,4.77
2023-01-12T04:36:07.287Z,5.33
2023-01-12T04:41:13.439Z,6.33
2023-01-12T04:46:19.612Z,5.05
2023-01-12T04:51:25.758Z,4.02
2023-01-12T04:56:32.012Z,4.17
2023-01-12T05:01:38.390Z,3.82
2023-01-12T05:06:45.829Z,4.99
2023-01-12T05:11:51.992Z,4.56
2023-01-12T05:16:58.307Z,3.25
2023-01-12T05:22:04.398Z,2.58
2023-01-12T05:27:10.642Z,2.39
2023-01-12T05:32:16.856Z,3.20
2023-01-12T05:37:23.121Z,4.32
2023-01-12T05:42:29.256Z,3.32
2023-01-12T05:47:35.453Z,3.59
2023-01-12T05:52:41.735Z,2.78
2023-01-12T05:57:48.038Z,2.27
2023-01-12T06:02:54.183Z,2.16
2023-01-12T06:08:00.505Z,1.91
2023-01-12T06:13:06.616Z,2.41
2023-01-12T06:18:12.855Z,2.96
2023-01-12T06:23:19.076Z,3.86
2023-01-12T06:28:26.060Z,1.81
2023-01-12T06:33:32.155Z,5.11
2023-01-12T06:38:38.410Z,1.62
2023-01-12T06:43:44.575Z,2.85
2023-01-12T06:48:50.739Z,1.57
2023-01-12T06:53:56.828Z,1.52
2023-01-12T06:59:03.099Z,1.94
2023-01-12T07:04:09.325Z,2.30
2023-01-12T07:09:15.573Z,1.31
2023-01-12T07:14:21.645Z,1.56
2023-01-12T07:19:27.787Z,1.31
2023-01-12T07:24:33.873Z,1.70
2023-01-12T07:29:40.207Z,2.21
2023-01-12T07:34:46.287Z,2.03
2023-01-12T07:39:52.440Z,1.48
2023-01-12T07:44:58.558Z,1.19
2023-01-12T07:50:04.727Z,1.37
2023-01-12T07:55:10.789Z,1.77
2023-01-12T08:00:16.993Z,1.35
2023-01-12T08:05:23.152Z,1.07
2023-01-12T08:10:29.283Z,1.24
2023-01-12T08:15:35.553Z,1.34
2023-01-12T08:20:41.689Z,1.96
2023-01-12T08:25:47.771Z,1.20
2023-01-12T08:30:53.943Z,1.24
2023-01-12T08:36:00.020Z,0.99
2023-01-12T08:41:06.186Z,1.07
2023-01-12T08:46:12.318Z,0.90
2023-01-12T08:51:18.495Z,1.24
2023-01-12T08:56:24.550Z,1.05
2023-01-12T09:01:30.990Z,0.83
2023-01-12T09:06:36.953Z,1.07
2023-01-12T09:11:43.107Z,0.81
2023-01-12T09:16:49.349Z,0.92
2023-01-12T09:21:55.495Z,0.96
2023-01-12T09:27:01.645Z,0.90
2023-01-12T09:32:07.864Z,0.83
2023-01-12T09:37:13.958Z,0.84
2023-01-12T09:43:14.751Z,0.83
2023-01-12T09:48:20.869Z,0.77
2023-01-12T09:53:26.626Z,0.65
2023-01-12T09:58:32.717Z,0.68
2023-01-12T10:03:39.118Z,0.84
2023-01-12T10:08:45.036Z,1.05
2023-01-12T10:13:51.370Z,0.86
2023-01-12T10:19:48.768Z,0.76
2023-01-12T10:24:54.378Z,0.85
2023-01-12T10:29:58.534Z,0.75
2023-01-12T10:35:04.825Z,1.01
2023-01-12T10:40:10.950Z,0.87
2023-01-12T10:45:17.368Z,1.10
2023-01-12T10:50:23.371Z,1.73
2023-01-12T10:55:29.600Z,2.48
2023-01-12T11:00:35.685Z,1.40
2023-01-12T11:05:41.844Z,3.11
2023-01-12T11:10:48.046Z,2.45
2023-01-12T11:15:54.273Z,2.91
2023-01-12T11:21:00.362Z,4.31
2023-01-12T11:26:06.573Z,2.80
2023-01-12T11:31:12.893Z,2.97
2023-01-12T11:36:18.929Z,4.14
2023-01-12T11:41:25.011Z,4.09
2023-01-12T11:46:31.113Z,3.68
2023-01-12T11:51:37.239Z,6.08
2023-01-12T11:56:43.438Z,5.49
2023-01-12T12:01:49.497Z,6.60
2023-01-12T12:06:55.730Z,7.22
2023-01-12T12:12:01.885Z,6.07
2023-01-12T12:17:08.304Z,6.38
2023-01-12T12:22:14.385Z,6.55
2023-01-12T12:27:20.578Z,6.64
2023-01-12T12:32:26.702Z,5.23
2023-01-12T12:37:32.877Z,7.01
2023-01-12T12:42:38.952Z,5.50
2023-01-12T12:47:45.070Z,5.80
2023-01-12T12:52:51.143Z,5.35
2023-01-12T12:57:57.373Z,4.81
2023-01-12T13:03:03.548Z,5.94
2023-01-12T13:08:09.669Z,6.62
2023-01-12T13:13:15.852Z,6.73
2023-01-12T13:18:22.431Z,7.32
2023-01-12T13:23:28.527Z,6.66
2023-01-12T13:28:34.671Z,4.79
2023-01-12T13:33:40.765Z,6.26
2023-01-12T13:38:47.014Z,6.56
2023-01-12T13:43:53.075Z,6.72
2023-01-12T13:48:59.330Z,6.08
2023-01-12T13:54:05.449Z,9.79
2023-01-12T13:59:11.675Z,5.50
2023-01-12T14:04:20.040Z,5.60
2023-01-12T14:09:23.557Z,5.46
2023-01-12T14:14:29.786Z,5.33
2023-01-12T14:19:35.991Z,5.58
2023-01-12T14:24:42.115Z,7.87
2023-01-12T14:29:48.302Z,6.84
2023-01-12T14:34:54.390Z,5.24
2023-01-12T14:40:00.978Z,5.65
2023-01-12T14:45:07.046Z,5.97
2023-01-12T14:50:13.156Z,7.62
2023-01-12T14:55:19.280Z,7.29
2023-01-12T15:00:25.480Z,7.42
2023-01-12T15:05:31.666Z,6.49
2023-01-12T15:10:38.008Z,6.79
2023-01-12T15:15:44.035Z,7.04
2023-01-12T15:20:50.276Z,6.86
2023-01-12T15:25:56.355Z,5.67
2023-01-12T15:31:02.606Z,6.49
2023-01-12T15:36:09.513Z,8.02
2023-01-12T15:41:15.709Z,5.80
2023-01-12T15:46:21.789Z,4.28
2023-01-12T15:51:28.135Z,2.43
2023-01-12T15:56:34.244Z,2.34
2023-01-12T16:01:40.600Z,1.89
2023-01-12T16:06:46.600Z,1.66
2023-01-12T16:11:52.786Z,1.71
2023-01-12T16:16:58.932Z,1.54
2023-01-12T16:22:05.134Z,1.54
2023-01-12T16:27:11.269Z,1.90
2023-01-12T16:32:17.555Z,1.88
2023-01-12T16:37:23.514Z,2.00
2023-01-12T16:42:29.772Z,2.30
2023-01-12T16:47:35.950Z,2.15
2023-01-12T16:52:42.132Z,2.13
2023-01-12T16:57:48.220Z,1.93
2023-01-12T17:02:54.527Z,1.79
2023-01-12T17:08:00.651Z,1.58
2023-01-12T17:13:06.952Z,2.55
2023-01-12T17:18:13.052Z,2.55
2023-01-12T17:23:19.343Z,2.52
2023-01-12T17:28:25.453Z,1.75
2023-01-12T17:33:31.664Z,1.68
2023-01-12T17:38:37.739Z,1.83
2023-01-12T17:43:43.912Z,1.64
2023-01-12T17:48:50.317Z,1.52
2023-01-12T17:53:56.269Z,1.74
2023-01-12T17:59:02.471Z,1.60
2023-01-12T18:04:08.744Z,1.68
2023-01-12T18:09:15.813Z,1.64
2023-01-12T18:14:22.072Z,1.78
2023-01-12T18:19:28.195Z,1.71
2023-01-12T18:24:34.391Z,1.93
2023-01-12T18:29:40.831Z,2.10
2023-01-12T18:34:47.025Z,1.62
2023-01-12T18:39:53.168Z,1.59
2023-01-12T18:44:59.452Z,1.56
2023-01-12T18:50:05.587Z,1.59
2023-01-12T18:55:11.857Z,1.52
2023-01-12T19:00:18.343Z,1.43
2023-01-12T19:05:24.539Z,1.34
2023-01-12T19:10:30.596Z,1.35
2023-01-12T19:15:36.788Z,1.38
2023-01-12T19:20:42.931Z,1.28
2023-01-12T19:25:49.171Z,1.48
2023-01-12T19:30:55.359Z,1.36
2023-01-12T19:36:01.501Z,1.45
2023-01-12T19:41:07.586Z,1.61
2023-01-12T19:46:13.819Z,1.07
2023-01-12T19:51:19.849Z,1.26
2023-01-12T19:56:26.071Z,1.14
2023-01-12T20:01:32.289Z,1.40
2023-01-12T20:06:38.463Z,1.24
2023-01-12T20:11:44.532Z,1.59
2023-01-12T20:16:50.715Z,1.89
2023-01-12T20:21:56.872Z,1.62
2023-01-12T20:27:03.263Z,1.84
2023-01-12T20:32:09.429Z,1.86
2023-01-12T20:37:15.641Z,1.74
2023-01-12T20:42:21.741Z,2.30
2023-01-12T20:47:28.139Z,2.24
2023-01-12T20:52:34.281Z,2.27
2023-01-12T20:57:40.554Z,2.40
2023-01-12T21:02:46.641Z,2.73
2023-01-12T21:08:00.029Z,2.58
2023-01-12T21:12:58.555Z,2.36
2023-01-12T21:18:04.887Z,2.82
2023-01-12T21:23:10.995Z,2.33
2023-01-12T21:28:17.263Z,2.29
2023-01-12T21:33:23.520Z,2.15
2023-01-12T21:38:29.862Z,1.94
2023-01-12T21:43:35.940Z,2.10
2023-01-12T21:48:42.274Z,1.98
2023-01-12T21:53:48.422Z,2.51
2023-01-12T21:58:54.668Z,2.30
2023-01-12T22:04:00.856Z,1.91
2023-01-12T22:09:07.158Z,1.97
2023-01-12T22:14:25.962Z,1.92
2023-01-12T22:19:32.144Z,2.09
2023-01-12T22:24:38.213Z,1.95
2023-01-12T22:29:44.545Z,2.11
2023-01-12T22:34:50.648Z,1.89
2023-01-12T22:39:56.975Z,1.84
2023-01-12T22:45:03.617Z,1.99
2023-01-12T22:50:10.087Z,1.62
2023-01-12T22:55:16.229Z,1.91
2023-01-12T23:00:22.538Z,2.41
2023-01-12T23:05:28.643Z,2.09
2023-01-12T23:10:34.926Z,2.36
2023-01-12T23:15:41.029Z,3.06
2023-01-12T23:20:47.229Z,2.32
2023-01-12T23:25:53.375Z,1.78
2023-01-12T23:30:59.635Z,3.94
2023-01-12T23:36:05.685Z,1.49
2023-01-12T23:41:11.856Z,2.11
2023-01-12T23:46:18.051Z,2.29
2023-01-12T23:51:24.301Z,3.54
2023-01-12T23:56:30.369Z,2.64
